Time;durP1;ratioP1;P1;durP2;ratioP2;P2;SDS_P1;SDS_P2;PMS_P1;PMS_P2;Temp;Humidity;BMP_temperature;BMP_pressure;BME280_temperature;BME280_humidity;BME280_pressure;Samples;Min_cycle;Max_cycle;Signal;HPM_P1;HPM_P2
2023/12/22 00:02:00;;;;;;;;;;;3.60;99.90;;;;;;5060273;28;19991;-70
2023/12/22 00:04:26;;;;;;;;;;;3.60;99.90;;;;;;5059771;28;19921;-70
2023/12/22 00:06:54;;;;;;;;;;;3.50;99.90;;;;;;5065724;28;19925;-70
2023/12/22 00:09:22;;;;;;;;;;;3.40;99.90;;;;;;5061728;28;19928;-70
2023/12/22 00:11:49;;;;;;;;;;;3.40;99.90;;;;;;5064385;28;19987;-69
2023/12/22 00:14:15;;;;;;;;;;;3.40;99.90;;;;;;5061587;28;19975;-69
2023/12/22 00:16:42;;;;;;;;;;;3.30;99.90;;;;;;5065128;28;19952;-69
2023/12/22 00:19:09;;;;;;;;;;;3.30;99.90;;;;;;5064005;28;19984;-69
2023/12/22 00:21:36;;;;;;;;;;;3.30;99.90;;;;;;5063847;28;19928;-70
2023/12/22 00:24:02;;;;;;;;;;;3.30;99.90;;;;;;5059160;28;19920;-69
2023/12/22 00:26:30;;;;;;;;;;;3.20;99.90;;;;;;5064145;28;19959;-70
2023/12/22 00:28:57;;;;;;;;;;;3.20;99.90;;;;;;5062064;28;20261;-69
2023/12/22 00:31:24;;;;;;;;;;;3.30;99.90;;;;;;5063571;28;19979;-69
2023/12/22 00:33:50;;;;;;;;;;;3.30;99.90;;;;;;5061469;28;19921;-71
2023/12/22 00:36:18;;;;;;;;;;;3.30;99.90;;;;;;5064385;28;19921;-70
2023/12/22 00:38:45;;;;;;;;;;;3.30;99.90;;;;;;5065132;28;19921;-70
2023/12/22 00:41:11;;;;;;;;;;;3.30;99.90;;;;;;5057661;28;19980;-69
2023/12/22 00:43:38;;;;;;;;;;;3.30;99.90;;;;;;5054569;28;19931;-70
2023/12/22 00:46:05;;;;;;;;;;;3.20;99.90;;;;;;5062509;28;19940;-71
2023/12/22 00:48:31;;;;;;;;;;;3.30;99.90;;;;;;5056816;28;19992;-70
2023/12/22 00:50:58;;;;;;;;;;;3.20;99.90;;;;;;5058389;28;19927;-70
2023/12/22 00:53:25;;;;;;;;;;;3.20;99.90;;;;;;5063566;28;20179;-70
2023/12/22 00:55:52;;;;;;;;;;;3.20;99.90;;;;;;5064653;28;19963;-70
2023/12/22 00:58:18;;;;;;;;;;;3.20;99.90;;;;;;5063682;28;19921;-69
2023/12/22 01:00:46;;;;;;;;;;;3.20;99.90;;;;;;5060653;28;19927;-70
2023/12/22 01:03:13;;;;;;;;;;;3.20;99.90;;;;;;5063015;28;19959;-70
2023/12/22 01:05:39;;;;;;;;;;;3.20;99.90;;;;;;5051828;28;19927;-69
2023/12/22 01:08:06;;;;;;;;;;;3.20;99.90;;;;;;5055813;28;19921;-70
2023/12/22 01:10:33;;;;;;;;;;;3.20;99.90;;;;;;5054222;28;19980;-70
2023/12/22 01:12:59;;;;;;;;;;;3.20;99.90;;;;;;5059147;28;19927;-70
2023/12/22 01:15:26;;;;;;;;;;;3.20;99.90;;;;;;5055846;28;20266;-70
2023/12/22 01:17:54;;;;;;;;;;;3.30;99.90;;;;;;5063421;28;19983;-71
2023/12/22 01:20:21;;;;;;;;;;;3.20;99.90;;;;;;5063773;28;19956;-69
2023/12/22 01:22:47;;;;;;;;;;;3.20;99.90;;;;;;5058002;28;19920;-70
2023/12/22 01:25:14;;;;;;;;;;;3.20;99.90;;;;;;5060295;28;19927;-69
2023/12/22 01:27:40;;;;;;;;;;;3.20;99.90;;;;;;5062546;28;19921;-70
2023/12/22 01:30:08;;;;;;;;;;;3.20;99.90;;;;;;5062364;28;19983;-70
2023/12/22 01:32:36;;;;;;;;;;;3.20;99.90;;;;;;5062401;28;20203;-70
2023/12/22 01:35:09;;;;;;;;;;;3.10;99.90;;;;;;5062041;28;20214;-70
2023/12/22 01:37:35;;;;;;;;;;;3.10;99.90;;;;;;5060416;28;19920;-70
2023/12/22 01:40:02;;;;;;;;;;;3.10;99.90;;;;;;5056993;28;19964;-69
2023/12/22 01:42:29;;;;;;;;;;;3.10;99.90;;;;;;5061553;28;20149;-70
2023/12/22 01:44:55;;;;;;;;;;;3.00;99.90;;;;;;5058475;28;19952;-70
2023/12/22 01:47:22;;;;;;;;;;;3.00;99.90;;;;;;5063633;28;19921;-70
2023/12/22 01:49:49;;;;;;;;;;;3.10;99.90;;;;;;5061499;28;20166;-70
2023/12/22 01:52:17;;;;;;;;;;;3.10;99.90;;;;;;5062640;28;20257;-69
2023/12/22 01:54:44;;;;;;;;;;;3.10;99.90;;;;;;5061120;28;19921;-70
2023/12/22 01:57:10;;;;;;;;;;;3.00;99.90;;;;;;5062307;28;19960;-70
2023/12/22 01:59:37;;;;;;;;;;;3.10;99.90;;;;;;5049735;28;20262;-70
2023/12/22 02:02:04;;;;;;;;;;;3.10;99.90;;;;;;5063080;28;19920;-70
2023/12/22 02:04:31;;;;;;;;;;;3.10;99.90;;;;;;5062551;28;19960;-70
2023/12/22 02:06:59;;;;;;;;;;;3.10;99.90;;;;;;5062444;28;20282;-70
2023/12/22 02:09:27;;;;;;;;;;;3.10;99.90;;;;;;5055370;28;19984;-70
2023/12/22 02:11:54;;;;;;;;;;;3.20;99.90;;;;;;5063009;28;19956;-70
2023/12/22 02:14:21;;;;;;;;;;;3.20;99.90;;;;;;5059777;28;19959;-70
2023/12/22 02:16:50;;;;;;;;;;;3.20;99.90;;;;;;5062963;28;19991;-70
2023/12/22 02:19:23;;;;;;;;;;;3.30;99.90;;;;;;5060189;28;19959;-70
2023/12/22 02:22:02;;;;;;;;;;;3.30;99.90;;;;;;5061804;28;19927;-70
2023/12/22 02:24:31;;;;;;;;;;;3.30;99.90;;;;;;5060889;28;19928;-70
2023/12/22 02:27:03;;;;;;;;;;;3.30;99.90;;;;;;5062964;28;19920;-69
2023/12/22 02:29:31;;;;;;;;;;;3.40;99.90;;;;;;5060028;28;20150;-70
2023/12/22 02:31:58;;;;;;;;;;;3.30;99.90;;;;;;5057821;28;19967;-70
2023/12/22 02:34:25;;;;;;;;;;;3.30;99.90;;;;;;5059352;28;19983;-70
2023/12/22 02:36:54;;;;;;;;;;;3.20;99.90;;;;;;5060991;28;19956;-70
2023/12/22 02:39:21;;;;;;;;;;;3.20;99.90;;;;;;5059423;28;19952;-70
2023/12/22 02:41:49;;;;;;;;;;;3.20;99.90;;;;;;5047960;28;20257;-72
2023/12/22 02:44:16;;;;;;;;;;;3.10;99.90;;;;;;5047618;28;19929;-70
2023/12/22 02:46:43;;;;;;;;;;;3.10;99.90;;;;;;5062888;28;20010;-70
2023/12/22 02:49:10;;;;;;;;;;;3.10;99.90;;;;;;5062543;28;19959;-69
2023/12/22 02:51:37;;;;;;;;;;;3.10;99.90;;;;;;5054057;28;19921;-70
2023/12/22 02:54:03;;;;;;;;;;;3.10;99.90;;;;;;5062920;28;19921;-70
2023/12/22 02:56:30;;;;;;;;;;;3.10;99.90;;;;;;5062833;28;19928;-69
2023/12/22 02:58:58;;;;;;;;;;;3.10;99.90;;;;;;5062887;28;19984;-70
2023/12/22 03:01:24;;;;;;;;;;;3.10;99.90;;;;;;5062560;28;19952;-70
2023/12/22 03:03:51;;;;;;;;;;;3.20;99.90;;;;;;5062411;28;19928;-70
2023/12/22 03:06:18;;;;;;;;;;;3.20;99.90;;;;;;5062781;28;19921;-70
2023/12/22 03:08:44;;;;;;;;;;;3.20;99.90;;;;;;5062837;28;19920;-70
2023/12/22 03:11:11;;;;;;;;;;;3.20;99.90;;;;;;5063914;28;19974;-70
2023/12/22 03:13:37;;;;;;;;;;;3.30;99.90;;;;;;5066299;28;19928;-69
2023/12/22 03:16:08;;;;;;;;;;;3.30;99.90;;;;;;5066639;28;19940;-70
2023/12/22 03:18:35;;;;;;;;;;;3.30;99.90;;;;;;5066119;28;20273;-70
2023/12/22 03:21:01;;;;;;;;;;;3.30;99.90;;;;;;5065453;28;19980;-70
2023/12/22 03:23:28;;;;;;;;;;;3.20;99.90;;;;;;5049854;28;20047;-72
2023/12/22 03:25:55;;;;;;;;;;;3.20;99.90;;;;;;5051274;28;19992;-70
2023/12/22 03:28:21;;;;;;;;;;;3.20;99.90;;;;;;5048701;28;19952;-70
2023/12/22 03:30:48;;;;;;;;;;;3.10;99.90;;;;;;5048794;28;19933;-70
2023/12/22 03:33:16;;;;;;;;;;;3.10;99.90;;;;;;5049547;28;20823;-69
2023/12/22 03:35:42;;;;;;;;;;;3.00;99.90;;;;;;5050701;28;20012;-70
2023/12/22 03:38:09;;;;;;;;;;;3.00;99.90;;;;;;5049597;28;19972;-70
2023/12/22 03:40:36;;;;;;;;;;;2.90;99.90;;;;;;5048417;28;19921;-69
2023/12/22 03:43:02;;;;;;;;;;;2.80;99.90;;;;;;5051675;28;19983;-70
2023/12/22 03:45:29;;;;;;;;;;;2.80;99.90;;;;;;5056351;28;19922;-71
2023/12/22 03:47:56;;;;;;;;;;;2.70;99.90;;;;;;5060407;28;19943;-70
2023/12/22 03:50:23;;;;;;;;;;;2.70;99.90;;;;;;5064519;28;19927;-70
2023/12/22 03:52:50;;;;;;;;;;;2.70;99.90;;;;;;5065687;28;20034;-70
2023/12/22 03:55:17;;;;;;;;;;;2.70;99.90;;;;;;5063057;28;19925;-70
2023/12/22 03:57:44;;;;;;;;;;;2.70;99.90;;;;;;5059599;28;20163;-70
2023/12/22 04:00:11;;;;;;;;;;;2.70;99.90;;;;;;5064144;28;19999;-69
2023/12/22 04:02:38;;;;;;;;;;;2.70;99.90;;;;;;5056529;28;19925;-70
2023/12/22 04:05:05;;;;;;;;;;;2.70;99.90;;;;;;5064185;28;20198;-69
2023/12/22 04:07:32;;;;;;;;;;;2.70;99.90;;;;;;5063557;28;19939;-70
2023/12/22 04:09:59;;;;;;;;;;;2.80;99.90;;;;;;5060538;28;20099;-70
2023/12/22 04:12:26;;;;;;;;;;;2.80;99.90;;;;;;5057880;28;19978;-70
2023/12/22 04:14:53;;;;;;;;;;;2.80;99.90;;;;;;5059712;28;19943;-70
2023/12/22 04:17:20;;;;;;;;;;;2.80;99.90;;;;;;5063785;28;19959;-70
2023/12/22 04:19:46;;;;;;;;;;;2.80;99.90;;;;;;5064060;28;19920;-70
2023/12/22 04:22:13;;;;;;;;;;;2.80;99.90;;;;;;5057028;28;19927;-70
2023/12/22 04:24:41;;;;;;;;;;;2.80;99.90;;;;;;5059868;28;19924;-70
2023/12/22 04:27:08;;;;;;;;;;;2.80;99.90;;;;;;5062454;28;20191;-70
2023/12/22 04:29:34;;;;;;;;;;;2.80;99.90;;;;;;5060329;28;19921;-69
2023/12/22 04:32:01;;;;;;;;;;;2.80;99.90;;;;;;5061665;28;20186;-70
2023/12/22 04:34:27;;;;;;;;;;;2.80;99.90;;;;;;5058291;28;19928;-70
2023/12/22 04:36:54;;;;;;;;;;;2.90;99.90;;;;;;5058028;28;20132;-70
2023/12/22 04:39:20;;;;;;;;;;;2.80;99.90;;;;;;5058248;28;19987;-70
2023/12/22 04:41:48;;;;;;;;;;;2.80;99.90;;;;;;5063632;28;20190;-70
2023/12/22 04:44:15;;;;;;;;;;;2.90;99.90;;;;;;5058266;28;19960;-70
2023/12/22 04:46:42;;;;;;;;;;;2.90;99.90;;;;;;5060688;28;19927;-71
2023/12/22 04:49:08;;;;;;;;;;;2.90;99.90;;;;;;5056972;28;20113;-71
2023/12/22 04:51:35;;;;;;;;;;;2.90;99.90;;;;;;5063604;28;20119;-70
2023/12/22 04:54:02;;;;;;;;;;;2.90;99.90;;;;;;5064177;28;19960;-70
2023/12/22 04:56:29;;;;;;;;;;;3.00;99.90;;;;;;5062064;28;19921;-69
2023/12/22 04:58:56;;;;;;;;;;;2.80;99.90;;;;;;5062149;28;19921;-70
2023/12/22 05:01:23;;;;;;;;;;;2.80;99.90;;;;;;5055525;28;20215;-70
2023/12/22 05:03:49;;;;;;;;;;;2.80;99.90;;;;;;5063222;28;19921;-70
2023/12/22 05:06:16;;;;;;;;;;;2.70;99.90;;;;;;5063269;28;19921;-70
2023/12/22 05:08:42;;;;;;;;;;;2.70;99.90;;;;;;5053036;28;19920;-70
2023/12/22 05:11:09;;;;;;;;;;;2.70;99.90;;;;;;5052460;28;19921;-70
2023/12/22 05:13:36;;;;;;;;;;;2.70;99.90;;;;;;5060915;28;19921;-70
2023/12/22 05:16:05;;;;;;;;;;;2.80;99.90;;;;;;5061605;28;19921;-69
2023/12/22 05:18:31;;;;;;;;;;;2.70;99.90;;;;;;5062496;28;19921;-70
2023/12/22 05:20:58;;;;;;;;;;;2.60;99.90;;;;;;5060888;28;19992;-70
2023/12/22 05:23:25;;;;;;;;;;;2.60;99.90;;;;;;5053693;28;19920;-70
2023/12/22 05:25:52;;;;;;;;;;;2.60;99.90;;;;;;5062777;28;19921;-69
2023/12/22 05:28:18;;;;;;;;;;;2.50;99.90;;;;;;5063372;28;19921;-69
2023/12/22 05:30:45;;;;;;;;;;;2.50;99.90;;;;;;5051290;28;20096;-70
2023/12/22 05:33:13;;;;;;;;;;;2.50;99.90;;;;;;5056483;28;19921;-70
2023/12/22 05:35:39;;;;;;;;;;;2.50;99.90;;;;;;5055458;28;19988;-70
2023/12/22 05:38:06;;;;;;;;;;;2.50;99.90;;;;;;5061193;28;19975;-70
2023/12/22 05:40:33;;;;;;;;;;;2.50;99.90;;;;;;5062819;28;19921;-70
2023/12/22 05:43:00;;;;;;;;;;;2.50;99.90;;;;;;5061666;28;19988;-70
2023/12/22 05:45:26;;;;;;;;;;;2.40;99.90;;;;;;5062106;28;19992;-70
2023/12/22 05:47:53;;;;;;;;;;;2.50;99.90;;;;;;5063005;28;19921;-69
2023/12/22 05:50:21;;;;;;;;;;;2.60;99.90;;;;;;5059949;28;20270;-69
2023/12/22 05:52:47;;;;;;;;;;;2.70;99.90;;;;;;5063005;28;19956;-69
2023/12/22 05:55:14;;;;;;;;;;;2.70;99.90;;;;;;5060132;28;19952;-69
2023/12/22 05:57:41;;;;;;;;;;;2.80;99.90;;;;;;5051385;28;19988;-69
2023/12/22 06:00:09;;;;;;;;;;;2.90;99.90;;;;;;5059783;28;19963;-69
2023/12/22 06:02:36;;;;;;;;;;;3.10;99.90;;;;;;5060047;28;19921;-69
2023/12/22 06:05:03;;;;;;;;;;;3.20;99.90;;;;;;5060304;28;19921;-69
2023/12/22 06:07:31;;;;;;;;;;;3.30;99.90;;;;;;5061079;28;19920;-69
2023/12/22 06:09:57;;;;;;;;;;;3.40;99.90;;;;;;5048365;28;20257;-69
2023/12/22 06:12:24;;;;;;;;;;;3.50;99.90;;;;;;5048021;28;19928;-69
2023/12/22 06:14:51;;;;;;;;;;;3.50;99.90;;;;;;5048685;28;19933;-68
2023/12/22 06:17:17;;;;;;;;;;;3.60;99.90;;;;;;5049064;28;19943;-70
2023/12/22 06:19:44;;;;;;;;;;;3.70;99.90;;;;;;5049869;28;20302;-69
2023/12/22 06:22:11;;;;;;;;;;;3.70;99.90;;;;;;5045599;28;21519;-70
2023/12/22 06:24:39;;;;;;;;;;;3.80;99.90;;;;;;5048655;28;19921;-68
2023/12/22 06:27:06;;;;;;;;;;;3.80;99.90;;;;;;5045641;28;20278;-70
2023/12/22 06:29:33;;;;;;;;;;;3.90;99.90;;;;;;5048365;28;19921;-69
2023/12/22 06:31:59;;;;;;;;;;;3.90;99.90;;;;;;5054293;28;19988;-68
2023/12/22 06:34:26;;;;;;;;;;;4.00;99.90;;;;;;5061872;28;20044;-68
2023/12/22 06:36:53;;;;;;;;;;;4.00;99.90;;;;;;5061877;28;19921;-69
2023/12/22 06:39:20;;;;;;;;;;;4.00;99.90;;;;;;5062060;28;20215;-68
2023/12/22 06:41:49;;;;;;;;;;;4.00;99.90;;;;;;5048142;28;19984;-69
2023/12/22 06:44:15;;;;;;;;;;;4.00;99.90;;;;;;5046690;28;20179;-70
2023/12/22 06:46:42;;;;;;;;;;;4.00;99.90;;;;;;5051408;28;19996;-68
2023/12/22 06:49:08;;;;;;;;;;;3.90;99.90;;;;;;5049955;28;19984;-68
2023/12/22 06:51:35;;;;;;;;;;;3.90;99.90;;;;;;5049436;28;19921;-69
2023/12/22 06:54:02;;;;;;;;;;;3.90;99.90;;;;;;5056778;28;20150;-69
2023/12/22 06:56:30;;;;;;;;;;;3.80;99.90;;;;;;5052486;28;20035;-68
2023/12/22 06:58:58;;;;;;;;;;;3.80;99.90;;;;;;5051522;28;19999;-69
2023/12/22 07:01:26;;;;;;;;;;;3.80;99.90;;;;;;5050594;28;19928;-69
2023/12/22 07:03:52;;;;;;;;;;;3.80;99.90;;;;;;5050298;28;20218;-69
2023/12/22 07:06:20;;;;;;;;;;;3.80;99.90;;;;;;5053230;28;19929;-69
2023/12/22 07:11:28;;;;;;;;;;;3.80;99.90;;;;;;5051999;28;19921;-69
2023/12/22 07:13:55;;;;;;;;;;;3.80;99.90;;;;;;5051854;28;19920;-70
2023/12/22 07:16:23;;;;;;;;;;;3.80;99.90;;;;;;5055813;28;19921;-67
2023/12/22 07:18:49;;;;;;;;;;;3.90;99.90;;;;;;5064069;28;19959;-68
2023/12/22 07:21:17;;;;;;;;;;;3.90;99.90;;;;;;5061662;28;19984;-68
2023/12/22 07:23:44;;;;;;;;;;;4.00;99.90;;;;;;5064192;28;19979;-69
2023/12/22 07:26:11;;;;;;;;;;;4.00;99.90;;;;;;5066333;28;19929;-68
2023/12/22 07:28:37;;;;;;;;;;;4.00;99.90;;;;;;5064435;28;19997;-69
2023/12/22 07:31:05;;;;;;;;;;;3.90;99.90;;;;;;5057455;28;19921;-69
2023/12/22 07:33:33;;;;;;;;;;;3.90;99.90;;;;;;5065061;28;19921;-69
2023/12/22 07:35:59;;;;;;;;;;;3.90;99.90;;;;;;5054904;28;19960;-69
2023/12/22 07:38:27;;;;;;;;;;;3.90;99.90;;;;;;5050940;28;19984;-69
2023/12/22 07:40:53;;;;;;;;;;;3.90;99.90;;;;;;5051678;28;20138;-69
2023/12/22 07:43:20;;;;;;;;;;;3.90;99.90;;;;;;5050105;28;19960;-68
2023/12/22 07:45:47;;;;;;;;;;;3.80;99.90;;;;;;5062806;28;19988;-69
2023/12/22 07:48:14;;;;;;;;;;;3.90;99.90;;;;;;5051889;28;19921;-68
2023/12/22 07:50:42;;;;;;;;;;;3.90;99.90;;;;;;5058643;28;19956;-69
2023/12/22 07:53:09;;;;;;;;;;;4.00;99.90;;;;;;5056104;28;19935;-69
2023/12/22 07:55:38;;;;;;;;;;;4.00;99.90;;;;;;5057974;28;20265;-71
2023/12/22 07:58:05;;;;;;;;;;;4.00;99.90;;;;;;5057844;28;19935;-70
2023/12/22 08:00:32;;;;;;;;;;;4.10;99.90;;;;;;5065035;28;19967;-69
2023/12/22 08:02:58;;;;;;;;;;;4.10;99.90;;;;;;5056861;28;20044;-69
2023/12/22 08:05:25;;;;;;;;;;;4.20;99.90;;;;;;5064513;28;19927;-71
2023/12/22 08:07:53;;;;;;;;;;;4.20;99.90;;;;;;5065663;28;19921;-69
2023/12/22 08:10:19;;;;;;;;;;;4.30;99.90;;;;;;5065526;28;19988;-71
2023/12/22 08:12:46;;;;;;;;;;;4.30;99.90;;;;;;5065142;28;19979;-69
2023/12/22 08:15:13;;;;;;;;;;;4.40;99.90;;;;;;5065113;28;19984;-69
2023/12/22 08:17:46;;;;;;;;;;;4.40;99.90;;;;;;5065430;28;20130;-69
2023/12/22 08:20:16;;;;;;;;;;;4.50;99.90;;;;;;5065385;28;19980;-71
2023/12/22 08:22:43;;;;;;;;;;;4.60;99.90;;;;;;5065449;28;19952;-70
2023/12/22 08:25:11;;;;;;;;;;;4.60;99.90;;;;;;5065320;28;19984;-70
2023/12/22 08:27:38;;;;;;;;;;;4.70;99.90;;;;;;5065246;28;19959;-70
2023/12/22 08:30:05;;;;;;;;;;;4.70;99.90;;;;;;5065321;28;19983;-70
2023/12/22 08:32:32;;;;;;;;;;;4.70;99.90;;;;;;5064879;28;19981;-71
2023/12/22 08:34:58;;;;;;;;;;;4.70;99.90;;;;;;5065220;28;19984;-70
2023/12/22 08:37:25;;;;;;;;;;;4.70;99.90;;;;;;5065099;28;20245;-70
2023/12/22 08:39:52;;;;;;;;;;;4.70;99.90;;;;;;5064622;28;19921;-70
2023/12/22 08:42:22;;;;;;;;;;;4.70;99.90;;;;;;5064472;28;19921;-70
2023/12/22 08:44:48;;;;;;;;;;;4.70;99.90;;;;;;5064865;28;20185;-70
2023/12/22 08:47:15;;;;;;;;;;;4.80;99.90;;;;;;5064835;28;19988;-70
2023/12/22 08:49:41;;;;;;;;;;;4.90;99.90;;;;;;5064807;28;19942;-70
2023/12/22 08:52:08;;;;;;;;;;;5.00;99.90;;;;;;5064582;28;19928;-70
2023/12/22 08:54:35;;;;;;;;;;;5.00;99.90;;;;;;5064341;28;19959;-70
2023/12/22 08:57:01;;;;;;;;;;;5.10;99.90;;;;;;5064676;28;19927;-71
2023/12/22 08:59:29;;;;;;;;;;;5.00;99.90;;;;;;5064644;28;19992;-70
2023/12/22 09:01:56;;;;;;;;;;;4.90;99.90;;;;;;5064066;28;19958;-70
2023/12/22 09:04:23;;;;;;;;;;;4.90;99.90;;;;;;5063836;28;19920;-71
2023/12/22 09:06:49;;;;;;;;;;;4.90;99.90;;;;;;5063912;28;19921;-73
2023/12/22 09:09:16;;;;;;;;;;;4.90;99.90;;;;;;5052150;28;19952;-69
2023/12/22 09:11:43;;;;;;;;;;;5.00;99.90;;;;;;5055670;28;19989;-68
2023/12/22 09:14:09;;;;;;;;;;;5.00;99.90;;;;;;5061059;28;19921;-69
2023/12/22 09:16:38;;;;;;;;;;;5.00;99.90;;;;;;5062888;28;19943;-69
2023/12/22 09:19:05;;;;;;;;;;;5.00;99.90;;;;;;5063296;28;20242;-69
2023/12/22 09:21:31;;;;;;;;;;;5.00;99.90;;;;;;5051465;28;19967;-68
2023/12/22 09:23:58;;;;;;;;;;;5.10;99.90;;;;;;5055785;28;20157;-69
2023/12/22 09:26:24;;;;;;;;;;;5.10;99.90;;;;;;5062486;28;19991;-69
2023/12/22 09:28:51;;;;;;;;;;;5.20;99.90;;;;;;5056231;28;19921;-69
2023/12/22 09:31:18;;;;;;;;;;;5.20;99.90;;;;;;5062610;28;19975;-69
2023/12/22 09:33:46;;;;;;;;;;;5.20;99.90;;;;;;5052507;28;19980;-69
2023/12/22 09:36:12;;;;;;;;;;;5.30;99.90;;;;;;5063081;28;20276;-69
2023/12/22 09:38:39;;;;;;;;;;;5.30;99.90;;;;;;5053750;28;19921;-68
2023/12/22 09:41:06;;;;;;;;;;;5.40;99.90;;;;;;5063271;28;19921;-69
2023/12/22 09:43:35;;;;;;;;;;;5.40;99.90;;;;;;5058777;28;20000;-68
2023/12/22 09:46:02;;;;;;;;;;;5.50;99.90;;;;;;5055886;28;20230;-69
2023/12/22 09:48:30;;;;;;;;;;;5.60;99.90;;;;;;5060755;28;19921;-69
2023/12/22 09:50:59;;;;;;;;;;;5.70;99.90;;;;;;5062706;28;19952;-69
2023/12/22 09:53:25;;;;;;;;;;;5.70;99.90;;;;;;5062287;28;19984;-69
2023/12/22 09:55:53;;;;;;;;;;;5.70;99.90;;;;;;5062573;28;19955;-69
2023/12/22 09:58:20;;;;;;;;;;;5.80;99.90;;;;;;5063348;28;19952;-69
2023/12/22 10:00:47;;;;;;;;;;;5.80;99.90;;;;;;5058703;28;20283;-69
2023/12/22 10:03:16;;;;;;;;;;;5.80;99.90;;;;;;5055642;28;19988;-70
2023/12/22 10:05:43;;;;;;;;;;;5.90;99.90;;;;;;5060234;28;19964;-69
2023/12/22 10:08:12;;;;;;;;;;;5.90;99.90;;;;;;5049723;28;19960;-69
2023/12/22 10:10:39;;;;;;;;;;;5.80;99.90;;;;;;5046416;28;19959;-73
2023/12/22 10:13:09;;;;;;;;;;;5.80;99.90;;;;;;5055617;28;19921;-70
2023/12/22 10:15:36;;;;;;;;;;;5.90;99.90;;;;;;5053166;28;20218;-69
2023/12/22 10:18:02;;;;;;;;;;;5.80;99.90;;;;;;5062810;28;19997;-70
2023/12/22 10:20:29;;;;;;;;;;;5.70;99.90;;;;;;5061882;28;20377;-70
2023/12/22 10:22:56;;;;;;;;;;;5.70;99.90;;;;;;5057428;28;19979;-70
2023/12/22 10:25:29;;;;;;;;;;;5.70;99.90;;;;;;5063282;28;19963;-71
2023/12/22 10:27:55;;;;;;;;;;;5.60;99.90;;;;;;5063320;28;19921;-70
2023/12/22 10:30:22;;;;;;;;;;;5.50;99.90;;;;;;5063244;28;19963;-70
2023/12/22 10:32:51;;;;;;;;;;;5.40;99.90;;;;;;5063020;28;19928;-70
2023/12/22 10:35:18;;;;;;;;;;;5.30;99.90;;;;;;5062895;28;19943;-70
2023/12/22 10:37:46;;;;;;;;;;;5.30;99.90;;;;;;5062793;28;19956;-71
2023/12/22 10:40:13;;;;;;;;;;;5.20;99.90;;;;;;5062758;28;20253;-70
2023/12/22 10:42:42;;;;;;;;;;;5.20;99.90;;;;;;5062686;28;20293;-70
2023/12/22 10:45:09;;;;;;;;;;;5.10;99.90;;;;;;5063022;28;19996;-71
2023/12/22 10:47:35;;;;;;;;;;;5.10;99.90;;;;;;5062639;28;19967;-71
2023/12/22 10:50:04;;;;;;;;;;;5.10;99.90;;;;;;5062742;28;19963;-70
2023/12/22 10:52:30;;;;;;;;;;;5.10;99.90;;;;;;5062479;28;19921;-72
2023/12/22 10:54:57;;;;;;;;;;;5.10;99.90;;;;;;5062874;28;20237;-71
2023/12/22 10:57:24;;;;;;;;;;;5.10;99.90;;;;;;5062847;28;19963;-69
2023/12/22 10:59:53;;;;;;;;;;;5.10;99.90;;;;;;5063058;28;19979;-69
2023/12/22 11:02:20;;;;;;;;;;;5.20;99.90;;;;;;5062088;28;19952;-70
2023/12/22 11:04:48;;;;;;;;;;;5.20;99.90;;;;;;5062767;28;20138;-69
2023/12/22 11:07:15;;;;;;;;;;;5.30;99.90;;;;;;5062447;28;20260;-70
2023/12/22 11:09:43;;;;;;;;;;;5.30;99.90;;;;;;5062830;28;19983;-69
2023/12/22 11:12:11;;;;;;;;;;;5.30;99.90;;;;;;5062583;28;19921;-69
2023/12/22 11:14:38;;;;;;;;;;;5.40;99.90;;;;;;5050833;28;19936;-69
2023/12/22 11:17:07;;;;;;;;;;;5.40;99.90;;;;;;5058553;28;20178;-70
2023/12/22 11:19:35;;;;;;;;;;;5.50;99.90;;;;;;5062724;28;19984;-69
2023/12/22 11:22:02;;;;;;;;;;;5.60;99.90;;;;;;5062663;28;19929;-69
2023/12/22 11:24:30;;;;;;;;;;;5.60;99.90;;;;;;5062480;28;20114;-69
2023/12/22 11:26:58;;;;;;;;;;;5.50;99.90;;;;;;5062577;28;19996;-69
2023/12/22 11:29:26;;;;;;;;;;;5.60;99.90;;;;;;5062616;28;19963;-69
2023/12/22 11:31:55;;;;;;;;;;;5.50;99.90;;;;;;5063555;28;19928;-69
2023/12/22 11:34:24;;;;;;;;;;;5.50;99.90;;;;;;5066211;28;19952;-69
2023/12/22 11:36:51;;;;;;;;;;;5.50;99.90;;;;;;5066132;28;20141;-70
2023/12/22 11:39:17;;;;;;;;;;;5.50;99.90;;;;;;5066159;28;19928;-70
2023/12/22 11:41:45;;;;;;;;;;;5.50;99.90;;;;;;5066100;28;19963;-69
2023/12/22 11:44:12;;;;;;;;;;;5.50;99.90;;;;;;5065998;28;19921;-69
2023/12/22 11:46:39;;;;;;;;;;;5.60;99.90;;;;;;5066046;28;19927;-69
2023/12/22 11:49:05;;;;;;;;;;;5.60;99.90;;;;;;5065920;28;19992;-71
2023/12/22 11:51:35;;;;;;;;;;;5.70;99.90;;;;;;5066014;28;19952;-69
2023/12/22 11:54:02;;;;;;;;;;;5.70;99.90;;;;;;5065918;28;19927;-69
2023/12/22 11:56:30;;;;;;;;;;;5.80;99.90;;;;;;5065976;28;19928;-70
2023/12/22 11:58:58;;;;;;;;;;;5.80;99.90;;;;;;5065891;28;19967;-71
2023/12/22 12:01:26;;;;;;;;;;;5.80;99.90;;;;;;5065844;28;19943;-69
2023/12/22 12:03:53;;;;;;;;;;;5.90;99.90;;;;;;5065717;28;19979;-69
2023/12/22 12:06:31;;;;;;;;;;;5.90;99.90;;;;;;5065471;28;19987;-70
2023/12/22 12:09:01;;;;;;;;;;;5.90;99.90;;;;;;5065757;28;19983;-69
2023/12/22 12:11:42;;;;;;;;;;;5.90;99.90;;;;;;5065440;28;19984;-69
2023/12/22 12:14:11;;;;;;;;;;;6.00;99.90;;;;;;5065164;28;20114;-69
2023/12/22 12:16:39;;;;;;;;;;;6.00;99.90;;;;;;5057519;28;19952;-69
2023/12/22 12:19:08;;;;;;;;;;;6.00;99.90;;;;;;5065089;28;19995;-69
2023/12/22 12:21:34;;;;;;;;;;;6.00;99.90;;;;;;5065194;28;19996;-69
2023/12/22 12:24:05;;;;;;;;;;;6.10;99.90;;;;;;5065247;28;19988;-70
2023/12/22 12:26:32;;;;;;;;;;;6.10;99.90;;;;;;5065232;28;20166;-69
2023/12/22 12:28:58;;;;;;;;;;;6.10;99.90;;;;;;5065251;28;20163;-69
2023/12/22 12:31:36;;;;;;;;;;;6.10;99.90;;;;;;5055967;28;19976;-69
2023/12/22 12:34:02;;;;;;;;;;;6.10;99.90;;;;;;5064171;28;19945;-70
2023/12/22 12:36:29;;;;;;;;;;;6.10;99.90;;;;;;5062104;28;20214;-70
2023/12/22 12:38:59;;;;;;;;;;;6.10;99.90;;;;;;5065030;28;19960;-70
2023/12/22 12:41:30;;;;;;;;;;;6.10;99.90;;;;;;5065254;28;19948;-70
2023/12/22 12:43:57;;;;;;;;;;;6.10;99.90;;;;;;5064500;28;19920;-69
2023/12/22 12:46:24;;;;;;;;;;;6.20;99.90;;;;;;5064448;28;20227;-70
2023/12/22 12:49:03;;;;;;;;;;;6.20;99.90;;;;;;5064808;28;19988;-69
2023/12/22 12:51:30;;;;;;;;;;;6.20;99.90;;;;;;5064575;28;19920;-70
2023/12/22 12:53:57;;;;;;;;;;;6.20;99.90;;;;;;5064576;28;19988;-69
2023/12/22 12:56:23;;;;;;;;;;;6.20;99.90;;;;;;5064643;28;19920;-69
2023/12/22 12:58:51;;;;;;;;;;;6.30;99.90;;;;;;5064373;28;19921;-69
2023/12/22 13:01:19;;;;;;;;;;;6.30;99.90;;;;;;5064320;28;19920;-69
2023/12/22 13:04:03;;;;;;;;;;;6.30;99.90;;;;;;5064190;28;20289;-69
2023/12/22 13:06:30;;;;;;;;;;;6.30;99.90;;;;;;5064212;28;19959;-69
2023/12/22 13:08:56;;;;;;;;;;;6.30;99.90;;;;;;5064060;28;19921;-69
2023/12/22 13:11:24;;;;;;;;;;;6.30;99.90;;;;;;5064000;28;19980;-69
2023/12/22 13:13:52;;;;;;;;;;;6.30;99.90;;;;;;5063712;28;19950;-69
2023/12/22 13:16:19;;;;;;;;;;;6.30;99.90;;;;;;5064379;28;20143;-70
2023/12/22 13:18:45;;;;;;;;;;;6.30;99.90;;;;;;5064186;28;19939;-69
2023/12/22 13:21:12;;;;;;;;;;;6.30;99.90;;;;;;5057840;28;20237;-69
2023/12/22 13:23:39;;;;;;;;;;;6.30;99.90;;;;;;5046528;28;20178;-70
2023/12/22 13:26:05;;;;;;;;;;;6.30;99.90;;;;;;5056435;28;19964;-70
2023/12/22 13:28:32;;;;;;;;;;;6.30;99.90;;;;;;5060540;28;19980;-68
2023/12/22 13:31:00;;;;;;;;;;;6.30;99.90;;;;;;5061288;28;19928;-69
2023/12/22 13:33:28;;;;;;;;;;;6.30;99.90;;;;;;5062524;28;19952;-69
2023/12/22 13:35:57;;;;;;;;;;;6.20;99.90;;;;;;5063862;28;19921;-69
2023/12/22 13:38:24;;;;;;;;;;;6.30;99.90;;;;;;5056343;28;19996;-69
2023/12/22 13:40:51;;;;;;;;;;;6.30;99.90;;;;;;5052649;28;19959;-69
2023/12/22 13:43:18;;;;;;;;;;;6.20;99.90;;;;;;5053651;28;19948;-70
2023/12/22 13:45:49;;;;;;;;;;;6.20;99.90;;;;;;5047367;28;20219;-70
2023/12/22 13:48:18;;;;;;;;;;;6.30;99.90;;;;;;5058840;28;19921;-69
2023/12/22 13:50:55;;;;;;;;;;;6.30;99.90;;;;;;5061886;28;20000;-69
2023/12/22 13:53:22;;;;;;;;;;;6.20;99.90;;;;;;5052600;28;19957;-68
2023/12/22 13:55:54;;;;;;;;;;;6.30;99.90;;;;;;5059636;28;19984;-68
2023/12/22 13:58:21;;;;;;;;;;;6.20;99.90;;;;;;5060825;28;19975;-68
2023/12/22 14:00:47;;;;;;;;;;;6.30;99.90;;;;;;5055219;28;19984;-68
2023/12/22 14:03:16;;;;;;;;;;;6.30;99.90;;;;;;5052591;28;19928;-67
2023/12/22 14:05:44;;;;;;;;;;;6.40;99.90;;;;;;5055237;28;19920;-68
2023/12/22 14:08:10;;;;;;;;;;;6.40;99.90;;;;;;5059994;28;19921;-67
2023/12/22 14:10:37;;;;;;;;;;;6.50;99.90;;;;;;5045697;28;19921;-68
2023/12/22 14:13:04;;;;;;;;;;;6.50;99.90;;;;;;5058334;28;20120;-69
2023/12/22 14:15:30;;;;;;;;;;;6.50;99.90;;;;;;5056510;28;19952;-70
2023/12/22 14:17:57;;;;;;;;;;;6.60;99.90;;;;;;5053924;28;19927;-69
2023/12/22 14:20:24;;;;;;;;;;;6.60;99.90;;;;;;5059947;28;19927;-69
2023/12/22 14:22:52;;;;;;;;;;;6.60;99.90;;;;;;5051454;28;20207;-70
2023/12/22 14:25:19;;;;;;;;;;;6.70;99.90;;;;;;5059160;28;19956;-68
2023/12/22 14:27:45;;;;;;;;;;;6.70;99.90;;;;;;5060214;28;19920;-70
2023/12/22 14:30:13;;;;;;;;;;;6.70;99.90;;;;;;5056446;28;19927;-69
2023/12/22 14:32:39;;;;;;;;;;;6.70;99.90;;;;;;5060536;28;20000;-70
2023/12/22 14:35:06;;;;;;;;;;;6.80;99.90;;;;;;5061857;28;19927;-69